createdAt,value
2017-05-05T00:00:44.738Z,0
2017-05-05T00:01:44.485Z,0
2017-05-05T00:02:45.127Z,0
2017-05-05T00:03:45.210Z,0
2017-05-05T00:04:44.627Z,0
2017-05-05T00:05:45.306Z,0
2017-05-05T00:06:44.655Z,0
2017-05-05T00:07:45.518Z,0
2017-05-05T00:08:45.024Z,0
2017-05-05T00:09:44.773Z,0
2017-05-05T00:10:45.154Z,0
2017-05-05T00:11:45.152Z,0
2017-05-05T00:12:45.537Z,0
2017-05-05T00:13:45.215Z,0
2017-05-05T00:14:45.305Z,0
2017-05-05T00:15:45.290Z,0
2017-05-05T00:16:45.021Z,0
2017-05-05T00:17:45.992Z,0
2017-05-05T00:18:45.095Z,0
2017-05-05T00:19:45.740Z,0
2017-05-05T00:20:45.175Z,0
2017-05-05T00:21:45.864Z,0
2017-05-05T00:22:45.235Z,0
2017-05-05T00:23:45.913Z,0
2017-05-05T00:24:45.924Z,0
2017-05-05T00:25:45.682Z,0
2017-05-05T00:26:45.695Z,0
2017-05-05T00:27:45.753Z,0
2017-05-05T00:28:46.062Z,0
2017-05-05T00:29:46.151Z,0
2017-05-05T00:30:45.517Z,0
2017-05-05T00:31:45.568Z,0
2017-05-05T00:32:46.196Z,0
2017-05-05T00:33:45.665Z,0
2017-05-05T00:34:45.689Z,0
2017-05-05T00:35:46.330Z,0
2017-05-05T00:36:45.765Z,0
2017-05-05T00:37:46.711Z,0
2017-05-05T00:38:45.822Z,0
2017-05-05T00:39:46.166Z,0
2017-05-05T00:40:45.902Z,0
2017-05-05T00:41:45.911Z,0
2017-05-05T00:42:46.299Z,0
2017-05-05T00:43:46.006Z,0
2017-05-05T00:44:46.044Z,0
2017-05-05T00:45:46.055Z,0
2017-05-05T00:46:46.745Z,0
2017-05-05T00:47:46.751Z,0
2017-05-05T00:48:46.512Z,0
2017-05-05T00:49:46.543Z,0
2017-05-05T00:50:46.548Z,0
2017-05-05T00:51:46.600Z,0
2017-05-05T00:52:46.648Z,0
2017-05-05T00:53:46.654Z,0
2017-05-05T00:54:46.721Z,0
2017-05-05T00:55:46.765Z,0
2017-05-05T00:56:46.454Z,0
2017-05-05T00:57:47.470Z,0
2017-05-05T00:58:47.158Z,0
2017-05-05T00:59:46.922Z,0
2017-05-05T01:00:46.626Z,0
2017-05-05T01:01:46.952Z,0
2017-05-05T01:02:47.310Z,0
2017-05-05T01:03:47.640Z,0
2017-05-05T01:04:47.065Z,0
2017-05-05T01:05:47.100Z,0
2017-05-05T01:06:46.824Z,0
2017-05-05T01:07:47.468Z,0
2017-05-05T01:08:47.523Z,0
2017-05-05T01:09:47.553Z,0
2017-05-05T01:10:47.273Z,0
2017-05-05T01:11:48.269Z,0
2017-05-05T01:12:47.032Z,0
2017-05-05T01:13:47.064Z,0
2017-05-05T01:14:47.122Z,0
2017-05-05T01:15:47.453Z,0
2017-05-05T01:16:47.202Z,0
2017-05-05T01:17:47.546Z,0
2017-05-05T01:18:47.568Z,0
2017-05-05T01:19:47.295Z,0
2017-05-05T01:20:47.651Z,0
2017-05-05T01:21:47.664Z,0
2017-05-05T01:22:47.401Z,0
2017-05-05T01:23:48.374Z,0
2017-05-05T01:24:47.498Z,0
2017-05-05T01:25:47.510Z,0
2017-05-05T01:26:47.554Z,0
2017-05-05T01:27:48.206Z,0
2017-05-05T01:28:47.968Z,0
2017-05-05T01:29:47.963Z,0
2017-05-05T01:30:47.692Z,0
2017-05-05T01:31:47.724Z,0
2017-05-05T01:32:48.382Z,0
2017-05-05T01:33:47.789Z,0
2017-05-05T01:34:47.829Z,0
2017-05-05T01:35:48.222Z,0
2017-05-05T01:36:48.212Z,0
2017-05-05T01:37:47.936Z,0
2017-05-05T01:38:48.280Z,0
2017-05-05T01:39:48.327Z,0
2017-05-05T01:40:48.365Z,0
2017-05-05T01:41:48.086Z,0
2017-05-05T01:42:48.135Z,0
2017-05-05T01:43:48.786Z,0
2017-05-05T01:44:48.173Z,0
2017-05-05T01:45:48.566Z,0
2017-05-05T01:46:48.258Z,0
2017-05-05T01:47:48.911Z,0
2017-05-05T01:48:49.600Z,0
2017-05-05T01:49:49.001Z,0
2017-05-05T01:50:48.400Z,0
2017-05-05T01:51:48.759Z,0
2017-05-05T01:52:49.481Z,0
2017-05-05T01:53:48.824Z,0
2017-05-05T01:54:48.872Z,0
2017-05-05T01:55:48.634Z,0
2017-05-05T01:56:49.264Z,0
2017-05-05T01:57:49.321Z,0
2017-05-05T01:58:49.042Z,0
2017-05-05T01:59:48.705Z,0
2017-05-05T02:00:49.108Z,0
2017-05-05T02:01:49.086Z,0
2017-05-05T02:02:49.435Z,0
2017-05-05T02:03:49.844Z,0
2017-05-05T02:04:48.891Z,0
2017-05-05T02:05:49.534Z,0
2017-05-05T02:06:49.002Z,0
2017-05-05T02:07:49.305Z,0
2017-05-05T02:08:49.345Z,0
2017-05-05T02:09:49.127Z,0
2017-05-05T02:10:50.047Z,0
2017-05-05T02:11:49.450Z,0
2017-05-05T02:12:49.482Z,0
2017-05-05T02:13:49.553Z,0
2017-05-05T02:14:50.173Z,0
2017-05-05T02:15:49.343Z,0
2017-05-05T02:16:50.012Z,0
2017-05-05T02:17:49.663Z,0
2017-05-05T02:18:50.079Z,0
2017-05-05T02:19:49.731Z,0
2017-05-05T02:20:49.829Z,0
2017-05-05T02:21:49.495Z,0
2017-05-05T02:22:49.564Z,0
2017-05-05T02:23:50.184Z,0
2017-05-05T02:24:49.607Z,0
2017-05-05T02:25:49.683Z,0
2017-05-05T02:26:50.012Z,0
2017-05-05T02:27:50.067Z,0
2017-05-05T02:28:50.062Z,0
2017-05-05T02:29:49.835Z,0
2017-05-05T02:30:50.129Z,0
2017-05-05T02:31:50.210Z,0
2017-05-05T02:32:49.895Z,0
2017-05-05T02:33:50.239Z,0
2017-05-05T02:34:50.272Z,0
2017-05-05T02:35:49.998Z,0
2017-05-05T02:36:50.096Z,0
2017-05-05T02:37:50.384Z,0
2017-05-05T02:38:50.114Z,0
2017-05-05T02:39:50.199Z,0
2017-05-05T02:40:50.182Z,0
2017-05-05T02:41:50.890Z,0
2017-05-05T02:42:51.250Z,0
2017-05-05T02:43:51.312Z,0
2017-05-05T02:44:50.330Z,0
2017-05-05T02:45:50.416Z,0
2017-05-05T02:46:50.704Z,0
2017-05-05T02:47:51.048Z,0
2017-05-05T02:48:50.783Z,0
2017-05-05T02:49:50.562Z,0
2017-05-05T02:50:50.906Z,0
2017-05-05T02:51:51.271Z,0
2017-05-05T02:52:50.959Z,0
2017-05-05T02:53:51.268Z,0
2017-05-05T02:54:51.366Z,0
2017-05-05T02:55:51.076Z,0
2017-05-05T02:56:51.080Z,0
2017-05-05T02:57:51.145Z,0
2017-05-05T02:58:51.187Z,0
2017-05-05T02:59:50.865Z,0
2017-05-05T03:00:51.208Z,0
2017-05-05T03:01:51.244Z,0
2017-05-05T03:02:51.286Z,0
2017-05-05T03:03:51.382Z,0
2017-05-05T03:04:51.106Z,0
2017-05-05T03:05:51.137Z,0
2017-05-05T03:06:51.115Z,0
2017-05-05T03:07:51.770Z,0
2017-05-05T03:08:51.495Z,0
2017-05-05T03:09:52.201Z,0
2017-05-05T03:10:51.898Z,0
2017-05-05T03:11:51.644Z,0
2017-05-05T03:12:51.700Z,0
2017-05-05T03:13:52.027Z,0
2017-05-05T03:14:51.462Z,0
2017-05-05T03:15:51.446Z,0
2017-05-05T03:16:52.091Z,0
2017-05-05T03:17:52.434Z,0
2017-05-05T03:18:52.235Z,0
2017-05-05T03:19:51.625Z,0
2017-05-05T03:20:51.929Z,0
2017-05-05T03:21:52.640Z,0
2017-05-05T03:22:51.739Z,0
2017-05-05T03:23:51.793Z,0
2017-05-05T03:24:52.437Z,0
2017-05-05T03:25:52.108Z,0
2017-05-05T03:26:51.888Z,0
2017-05-05T03:27:52.495Z,0
2017-05-05T03:28:52.247Z,0
2017-05-05T03:29:52.308Z,0
2017-05-05T03:30:51.978Z,0
2017-05-05T03:31:52.327Z,0
2017-05-05T03:32:52.974Z,0
2017-05-05T03:33:53.091Z,0
2017-05-05T03:34:52.434Z,0
2017-05-05T03:35:52.473Z,0
2017-05-05T03:36:52.563Z,0
2017-05-05T03:37:52.585Z,0
2017-05-05T03:38:52.266Z,0
2017-05-05T03:39:52.333Z,0
2017-05-05T03:40:52.356Z,0
2017-05-05T03:41:52.744Z,0
2017-05-05T03:42:52.722Z,0
2017-05-05T03:43:52.761Z,0
2017-05-05T03:44:52.511Z,0
2017-05-05T03:45:52.580Z,0
2017-05-05T03:46:52.555Z,0
2017-05-05T03:47:52.596Z,0
2017-05-05T03:48:53.250Z,0
2017-05-05T03:49:52.968Z,0
2017-05-05T03:50:53.011Z,0
2017-05-05T03:51:53.398Z,0
2017-05-05T03:52:53.701Z,5
2017-05-05T03:53:54.046Z,5
2017-05-05T03:54:52.844Z,5
2017-05-05T03:55:53.543Z,5
2017-05-05T03:56:53.543Z,5
2017-05-05T03:57:52.995Z,5
2017-05-05T03:58:53.982Z,5
2017-05-05T03:59:53.049Z,5
2017-05-05T04:00:53.072Z,5
2017-05-05T04:01:53.131Z,5
2017-05-05T04:02:54.108Z,5
2017-05-05T04:03:53.169Z,5
2017-05-05T04:04:53.261Z,5
2017-05-05T04:05:53.600Z,5
2017-05-05T04:06:53.893Z,5
2017-05-05T04:07:53.697Z,5
2017-05-05T04:08:53.654Z,5
2017-05-05T04:09:53.396Z,5
2017-05-05T04:10:53.419Z,5
2017-05-05T04:11:53.483Z,5
2017-05-05T04:12:53.802Z,10
2017-05-05T04:13:53.655Z,10
2017-05-05T04:14:53.878Z,15
2017-05-05T04:15:53.600Z,15
2017-05-05T04:16:53.649Z,10
2017-05-05T04:17:54.041Z,10
2017-05-05T04:18:54.331Z,10
2017-05-05T04:19:54.139Z,15
2017-05-05T04:20:54.141Z,15
2017-05-05T04:21:53.872Z,10
2017-05-05T04:22:54.156Z,10
2017-05-05T04:23:54.584Z,10
2017-05-05T04:24:54.229Z,10
2017-05-05T04:25:53.958Z,10
2017-05-05T04:26:54.056Z,10
2017-05-05T04:27:54.043Z,10
2017-05-05T04:28:54.439Z,10
2017-05-05T04:29:54.480Z,10
2017-05-05T04:30:54.200Z,10
2017-05-05T04:31:54.522Z,10
2017-05-05T04:32:54.580Z,10
2017-05-05T04:33:54.618Z,10
2017-05-05T04:34:54.290Z,15
2017-05-05T04:35:54.321Z,15
2017-05-05T04:36:54.426Z,15
2017-05-05T04:37:54.446Z,15
2017-05-05T04:38:54.801Z,15
2017-05-05T04:40:02.053Z,15
2017-05-05T04:40:58.383Z,15
2017-05-05T04:41:55.130Z,15
2017-05-05T04:42:54.880Z,20
2017-05-05T04:43:55.232Z,20
2017-05-05T04:44:54.955Z,20
2017-05-05T04:45:55.652Z,20
2017-05-05T04:46:55.066Z,20
2017-05-05T04:47:55.072Z,20
2017-05-05T04:48:55.505Z,20
2017-05-05T04:49:55.201Z,20
2017-05-05T04:50:54.865Z,25
2017-05-05T04:51:54.930Z,25
2017-05-05T04:52:54.937Z,30
2017-05-05T04:53:55.327Z,30
2017-05-05T04:54:55.058Z,30
2017-05-05T04:55:55.085Z,30
2017-05-05T04:56:55.391Z,35
2017-05-05T04:57:55.116Z,35
2017-05-05T04:58:55.207Z,40
2017-05-05T04:59:56.195Z,40
2017-05-05T05:00:55.603Z,45
2017-05-05T05:01:55.639Z,50
2017-05-05T05:02:56.317Z,55
2017-05-05T05:03:56.040Z,60
2017-05-05T05:04:55.433Z,60
2017-05-05T05:05:55.769Z,60
2017-05-05T05:06:55.752Z,65
2017-05-05T05:07:55.547Z,65
2017-05-05T05:08:56.196Z,65
2017-05-05T05:09:55.860Z,70
2017-05-05T05:10:55.939Z,65
2017-05-05T05:11:55.670Z,65
2017-05-05T05:12:55.977Z,70
2017-05-05T05:13:55.761Z,65
2017-05-05T05:14:56.116Z,55
2017-05-05T05:15:55.774Z,50
2017-05-05T05:16:56.115Z,45
2017-05-05T05:17:56.464Z,50
2017-05-05T05:18:56.522Z,50
2017-05-05T05:19:56.223Z,55
2017-05-05T05:20:55.954Z,55
2017-05-05T05:21:56.654Z,55
2017-05-05T05:22:56.032Z,60
2017-05-05T05:23:56.685Z,65
2017-05-05T05:24:56.411Z,75
2017-05-05T05:25:56.442Z,80
2017-05-05T05:26:56.479Z,80
2017-05-05T05:27:56.828Z,80
2017-05-05T05:28:56.313Z,80
2017-05-05T05:29:56.900Z,75
2017-05-05T05:30:56.622Z,75
2017-05-05T05:31:56.426Z,75
2017-05-05T05:32:56.795Z,80
2017-05-05T05:33:56.469Z,85
2017-05-05T05:34:56.771Z,80
2017-05-05T05:35:56.503Z,75
2017-05-05T05:36:56.540Z,70
2017-05-05T05:37:56.881Z,55
2017-05-05T05:38:56.921Z,50
2017-05-05T05:39:57.002Z,50
2017-05-05T05:40:57.296Z,45
2017-05-05T05:41:57.092Z,45
2017-05-05T05:42:57.069Z,45
2017-05-05T05:43:57.141Z,45
2017-05-05T05:44:57.454Z,50
2017-05-05T05:45:57.180Z,55
2017-05-05T05:46:57.211Z,60
2017-05-05T05:47:57.554Z,60
2017-05-05T05:48:57.287Z,60
2017-05-05T05:49:57.328Z,55
2017-05-05T05:50:57.048Z,55
2017-05-05T05:51:57.397Z,50
2017-05-05T05:52:57.742Z,50
2017-05-05T05:53:57.526Z,55
2017-05-05T05:54:57.504Z,55
2017-05-05T05:55:57.538Z,55
2017-05-05T05:56:57.576Z,55
2017-05-05T05:57:57.937Z,60
2017-05-05T05:58:57.959Z,70
2017-05-05T05:59:57.381Z,75
2017-05-05T06:00:57.768Z,80
2017-05-05T06:01:58.079Z,80
2017-05-05T06:02:57.579Z,85
2017-05-05T06:03:57.527Z,85
2017-05-05T06:04:57.585Z,90
2017-05-05T06:05:57.650Z,100
2017-05-05T06:06:58.334Z,110
2017-05-05T06:07:58.106Z,120
2017-05-05T06:08:57.855Z,130
2017-05-05T06:09:58.736Z,135
2017-05-05T06:10:58.120Z,140
2017-05-05T06:11:57.819Z,150
2017-05-05T06:12:58.786Z,145
2017-05-05T06:13:57.942Z,140
2017-05-05T06:14:57.939Z,140
2017-05-05T06:15:58.710Z,140
2017-05-05T06:16:58.006Z,130
2017-05-05T06:17:58.351Z,120
2017-05-05T06:18:58.079Z,115
2017-05-05T06:19:58.444Z,115
2017-05-05T06:20:58.356Z,115
2017-05-05T06:21:58.242Z,110
2017-05-05T06:22:58.541Z,110
2017-05-05T06:23:58.346Z,115
2017-05-05T06:24:58.624Z,110
2017-05-05T06:25:58.709Z,105
2017-05-05T06:26:58.450Z,105
2017-05-05T06:27:58.412Z,110
2017-05-05T06:28:59.069Z,110
2017-05-05T06:29:59.467Z,110
2017-05-05T06:30:58.524Z,110
2017-05-05T06:31:58.872Z,110
2017-05-05T06:32:58.910Z,105
2017-05-05T06:33:59.019Z,105
2017-05-05T06:34:58.676Z,105
2017-05-05T06:35:58.712Z,95
2017-05-05T06:36:58.752Z,105
2017-05-05T06:37:59.095Z,110
2017-05-05T06:38:59.436Z,110
2017-05-05T06:39:58.886Z,115
2017-05-05T06:40:59.265Z,110
2017-05-05T06:41:59.294Z,110
2017-05-05T06:42:59.281Z,110
2017-05-05T06:43:59.696Z,100
2017-05-05T06:44:59.712Z,95
2017-05-05T06:45:59.129Z,90
2017-05-05T06:46:59.476Z,85
2017-05-05T06:47:59.780Z,85
2017-05-05T06:48:59.572Z,85
2017-05-05T06:49:59.592Z,90
2017-05-05T06:50:59.270Z,90
2017-05-05T06:51:59.613Z,95
2017-05-05T06:52:59.358Z,105
2017-05-05T06:53:59.383Z,110
2017-05-05T06:54:59.729Z,115
2017-05-05T06:55:59.504Z,120
2017-05-05T06:56:59.806Z,115
2017-05-05T06:58:00.220Z,115
2017-05-05T06:59:00.591Z,115
2017-05-05T06:59:59.679Z,110
2017-05-05T07:00:59.953Z,110
2017-05-05T07:02:00.392Z,110
2017-05-05T07:03:00.033Z,105
2017-05-05T07:04:00.409Z,115
2017-05-05T07:05:00.784Z,120
2017-05-05T07:06:00.149Z,120
2017-05-05T07:06:59.867Z,110
2017-05-05T07:08:00.527Z,100
2017-05-05T07:08:59.940Z,95
2017-05-05T07:09:59.981Z,90
2017-05-05T07:11:00.077Z,95
2017-05-05T07:12:00.419Z,100
2017-05-05T07:13:00.098Z,100
2017-05-05T07:14:00.526Z,100
2017-05-05T07:15:00.568Z,105
2017-05-05T07:16:00.270Z,110
2017-05-05T07:17:00.242Z,115
2017-05-05T07:18:00.274Z,110
2017-05-05T07:19:00.370Z,115
2017-05-05T07:20:00.665Z,120
2017-05-05T07:21:00.693Z,130
2017-05-05T07:22:00.785Z,160
2017-05-05T07:23:00.779Z,175
2017-05-05T07:24:01.145Z,205
2017-05-05T07:25:01.234Z,220
2017-05-05T07:26:00.895Z,220
2017-05-05T07:27:00.615Z,205
2017-05-05T07:28:01.270Z,185
2017-05-05T07:29:00.995Z,170
2017-05-05T07:30:01.650Z,155
2017-05-05T07:31:00.761Z,150
2017-05-05T07:32:01.108Z,150
2017-05-05T07:33:01.150Z,150
2017-05-05T07:34:01.562Z,150
2017-05-05T07:35:01.223Z,150
2017-05-05T07:36:01.265Z,150
2017-05-05T07:37:01.034Z,150
2017-05-05T07:38:01.032Z,155
2017-05-05T07:39:01.683Z,170
2017-05-05T07:40:01.735Z,185
2017-05-05T07:41:01.184Z,205
2017-05-05T07:42:01.485Z,225
2017-05-05T07:43:01.922Z,235
2017-05-05T07:44:01.563Z,255
2017-05-05T07:45:01.316Z,275
2017-05-05T07:46:01.367Z,280
2017-05-05T07:47:01.738Z,285
2017-05-05T07:48:01.724Z,270
2017-05-05T07:49:01.449Z,270
2017-05-05T07:50:02.103Z,280
2017-05-05T07:51:01.874Z,285
2017-05-05T07:52:01.943Z,275
2017-05-05T07:53:01.905Z,260
2017-05-05T07:54:01.996Z,255
2017-05-05T07:55:02.328Z,245
2017-05-05T07:56:01.716Z,230
2017-05-05T07:57:01.756Z,210
2017-05-05T07:58:02.105Z,190
2017-05-05T07:59:02.141Z,170
2017-05-05T08:00:01.918Z,160
2017-05-05T08:01:02.404Z,155
2017-05-05T08:02:02.069Z,155
2017-05-05T08:03:02.645Z,175
2017-05-05T08:04:02.327Z,205
2017-05-05T08:05:02.100Z,230
2017-05-05T08:06:02.212Z,250
2017-05-05T08:07:02.499Z,270
2017-05-05T08:08:02.649Z,245
2017-05-05T08:09:02.233Z,220
2017-05-05T08:10:02.901Z,195
2017-05-05T08:11:02.615Z,190
2017-05-05T08:12:03.028Z,190
2017-05-05T08:13:03.061Z,195
2017-05-05T08:14:02.772Z,200
2017-05-05T08:15:02.808Z,200
2017-05-05T08:16:02.804Z,210
2017-05-05T08:17:02.603Z,235
2017-05-05T08:18:02.910Z,255
2017-05-05T08:19:02.916Z,265
2017-05-05T08:20:02.949Z,275
2017-05-05T08:21:03.294Z,310
2017-05-05T08:22:02.733Z,335
2017-05-05T08:23:02.758Z,335
2017-05-05T08:24:03.414Z,325
2017-05-05T08:25:03.452Z,320
2017-05-05T08:26:02.881Z,320
2017-05-05T08:27:02.919Z,315
2017-05-05T08:28:03.000Z,320
2017-05-05T08:29:03.377Z,325
2017-05-05T08:30:03.413Z,315
2017-05-05T08:31:03.295Z,300
2017-05-05T08:32:03.510Z,295
2017-05-05T08:33:03.281Z,305
2017-05-05T08:34:03.574Z,285
2017-05-05T08:35:03.528Z,265
2017-05-05T08:36:03.747Z,245
2017-05-05T08:37:03.603Z,250
2017-05-05T08:38:03.649Z,265
2017-05-05T08:39:03.687Z,280
2017-05-05T08:40:03.765Z,285
2017-05-05T08:41:03.801Z,275
2017-05-05T08:42:03.525Z,250
2017-05-05T08:43:03.848Z,230
2017-05-05T08:44:04.188Z,220
2017-05-05T08:45:04.326Z,220
2017-05-05T08:46:03.956Z,225
2017-05-05T08:47:03.752Z,230
2017-05-05T08:48:04.078Z,245
2017-05-05T08:49:04.131Z,265
2017-05-05T08:50:04.454Z,285
2017-05-05T08:51:03.902Z,290
2017-05-05T08:52:03.887Z,275
2017-05-05T08:53:03.987Z,250
2017-05-05T08:54:04.275Z,220
2017-05-05T08:55:04.004Z,200
2017-05-05T08:56:04.407Z,185
2017-05-05T08:57:04.404Z,180
2017-05-05T08:58:04.433Z,185
2017-05-05T08:59:04.475Z,195
2017-05-05T09:00:04.818Z,205
2017-05-05T09:01:04.248Z,200
2017-05-05T09:02:04.587Z,195
2017-05-05T09:03:04.930Z,185
2017-05-05T09:04:05.026Z,175
2017-05-05T09:05:04.860Z,170
2017-05-05T09:06:04.739Z,160
2017-05-05T09:07:05.348Z,155
2017-05-05T09:08:04.508Z,155
2017-05-05T09:09:04.860Z,165
2017-05-05T09:10:05.210Z,190
2017-05-05T09:11:05.245Z,205
2017-05-05T09:12:04.978Z,240
2017-05-05T09:13:05.048Z,275
2017-05-05T09:14:04.801Z,310
2017-05-05T09:15:05.457Z,330
2017-05-05T09:16:05.201Z,340
2017-05-05T09:17:04.902Z,345
2017-05-05T09:18:04.900Z,340
2017-05-05T09:19:05.250Z,325
2017-05-05T09:20:05.658Z,315
2017-05-05T09:21:05.393Z,295
2017-05-05T09:22:05.365Z,280
2017-05-05T09:23:05.716Z,255
2017-05-05T09:24:05.133Z,225
2017-05-05T09:25:05.218Z,215
2017-05-05T09:26:05.519Z,225
2017-05-05T09:27:05.335Z,240
2017-05-05T09:28:05.926Z,255
2017-05-05T09:29:05.691Z,270
2017-05-05T09:30:06.050Z,265
2017-05-05T09:31:06.030Z,255
2017-05-05T09:32:05.764Z,245
2017-05-05T09:33:05.830Z,225
2017-05-05T09:34:05.851Z,215
2017-05-05T09:35:06.185Z,210
2017-05-05T09:36:05.635Z,215
2017-05-05T09:37:05.647Z,225
2017-05-05T09:38:05.995Z,240
2017-05-05T09:39:06.419Z,245
2017-05-05T09:40:06.073Z,250
2017-05-05T09:41:05.802Z,260
2017-05-05T09:42:05.847Z,255
2017-05-05T09:43:05.881Z,245
2017-05-05T09:44:05.961Z,230
2017-05-05T09:45:06.292Z,225
2017-05-05T09:46:05.996Z,220
2017-05-05T09:47:06.388Z,225
2017-05-05T09:48:06.388Z,225
2017-05-05T09:49:06.786Z,240
2017-05-05T09:50:06.469Z,245
2017-05-05T09:51:06.196Z,235
2017-05-05T09:52:06.915Z,220
2017-05-05T09:53:06.274Z,205
2017-05-05T09:54:06.668Z,195
2017-05-05T09:55:06.661Z,195
2017-05-05T09:56:06.746Z,195
2017-05-05T09:57:07.049Z,195
2017-05-05T09:58:06.538Z,195
2017-05-05T09:59:07.482Z,190
2017-05-05T10:00:06.549Z,180
2017-05-05T10:01:06.590Z,175
2017-05-05T10:02:06.995Z,170
2017-05-05T10:03:06.983Z,165
2017-05-05T10:04:07.382Z,160
2017-05-05T10:05:07.054Z,150
2017-05-05T10:06:07.139Z,150
2017-05-05T10:07:06.820Z,150
2017-05-05T10:08:07.216Z,155
2017-05-05T10:09:07.205Z,155
2017-05-05T10:10:07.289Z,155
2017-05-05T10:11:06.978Z,155
2017-05-05T10:12:07.071Z,155
2017-05-05T10:13:07.125Z,160
2017-05-05T10:14:07.403Z,160
2017-05-05T10:15:07.137Z,165
2017-05-05T10:16:07.510Z,165
2017-05-05T10:17:07.546Z,165
2017-05-05T10:18:07.253Z,160
2017-05-05T10:19:07.650Z,160
2017-05-05T10:20:07.640Z,165
2017-05-05T10:21:07.368Z,165
2017-05-05T10:22:07.455Z,165
2017-05-05T10:23:08.058Z,155
2017-05-05T10:24:07.852Z,150
2017-05-05T10:25:07.567Z,150
2017-05-05T10:26:08.177Z,150
2017-05-05T10:27:07.664Z,150
2017-05-05T10:28:07.640Z,145
2017-05-05T10:29:07.981Z,145
2017-05-05T10:30:07.721Z,140
2017-05-05T10:31:07.756Z,135
2017-05-05T10:32:08.101Z,130
2017-05-05T10:33:07.839Z,125
2017-05-05T10:34:09.463Z,125
2017-05-05T10:35:07.907Z,125
2017-05-05T10:36:07.958Z,130
2017-05-05T10:37:07.988Z,135
2017-05-05T10:38:08.085Z,135
2017-05-05T10:39:08.369Z,135
2017-05-05T10:40:08.172Z,130
2017-05-05T10:41:08.445Z,125
2017-05-05T10:42:08.802Z,125
2017-05-05T10:43:08.901Z,130
2017-05-05T10:44:08.872Z,130
2017-05-05T10:45:08.599Z,135
2017-05-05T10:46:08.336Z,140
2017-05-05T10:47:08.412Z,140
2017-05-05T10:48:08.460Z,145
2017-05-05T10:49:08.760Z,145
2017-05-05T10:50:09.103Z,145
2017-05-05T10:51:08.853Z,145
2017-05-05T10:52:08.954Z,140
2017-05-05T10:53:08.975Z,135
2017-05-05T10:54:09.000Z,135
2017-05-05T10:55:08.993Z,130
2017-05-05T10:56:09.085Z,130
2017-05-05T10:57:09.063Z,135
2017-05-05T10:58:09.194Z,140
2017-05-05T10:59:09.150Z,145
2017-05-05T11:00:08.923Z,155
2017-05-05T11:01:08.918Z,165
2017-05-05T11:02:09.256Z,175
2017-05-05T11:03:09.305Z,185
2017-05-05T11:04:09.085Z,200
2017-05-05T11:05:09.065Z,215
2017-05-05T11:06:09.160Z,220
2017-05-05T11:07:09.145Z,235
2017-05-05T11:08:09.498Z,245
2017-05-05T11:09:09.522Z,255
2017-05-05T11:10:09.570Z,260
2017-05-05T11:11:09.303Z,265
2017-05-05T11:12:09.402Z,255
2017-05-05T11:13:09.719Z,240
2017-05-05T11:14:09.413Z,225
2017-05-05T11:15:09.823Z,210
2017-05-05T11:16:09.798Z,195
2017-05-05T11:17:09.573Z,185
2017-05-05T11:18:09.898Z,185
2017-05-05T11:19:10.226Z,185
2017-05-05T11:20:09.964Z,185
2017-05-05T11:21:09.993Z,185
2017-05-05T11:22:10.402Z,175
2017-05-05T11:23:09.815Z,170
2017-05-05T11:24:09.806Z,170
2017-05-05T11:25:10.147Z,170
2017-05-05T11:26:09.988Z,165
2017-05-05T11:27:09.921Z,165
2017-05-05T11:28:09.971Z,160
2017-05-05T11:29:09.997Z,155
2017-05-05T11:30:10.033Z,155
2017-05-05T11:31:10.078Z,155
2017-05-05T11:32:10.436Z,145
2017-05-05T11:33:10.459Z,140
2017-05-05T11:34:10.720Z,140
2017-05-05T11:35:10.399Z,135
2017-05-05T11:36:10.591Z,125
2017-05-05T11:37:10.358Z,125
2017-05-05T11:38:10.364Z,125
2017-05-05T11:39:10.393Z,125
2017-05-05T11:40:10.728Z,125
2017-05-05T11:41:10.838Z,120
2017-05-05T11:42:10.508Z,115
2017-05-05T11:43:10.892Z,115
2017-05-05T11:44:10.914Z,110
2017-05-05T11:45:10.674Z,110
2017-05-05T11:46:10.962Z,110
2017-05-05T11:47:10.703Z,105
2017-05-05T11:48:10.768Z,105
2017-05-05T11:49:11.128Z,100
2017-05-05T11:50:11.133Z,100
2017-05-05T11:51:11.226Z,95
2017-05-05T11:52:11.192Z,90
2017-05-05T11:53:11.276Z,90
2017-05-05T11:54:11.273Z,90
2017-05-05T11:55:11.003Z,85
2017-05-05T11:56:11.348Z,85
2017-05-05T11:57:11.083Z,85
2017-05-05T11:58:11.480Z,80
2017-05-05T11:59:11.465Z,80
2017-05-05T12:00:11.202Z,80
2017-05-05T12:01:11.538Z,85
2017-05-05T12:02:11.314Z,85
2017-05-05T12:03:11.626Z,90
2017-05-05T12:04:11.960Z,100
2017-05-05T12:05:11.715Z,110
2017-05-05T12:06:11.795Z,115
2017-05-05T12:07:11.530Z,110
2017-05-05T12:08:12.194Z,110
2017-05-05T12:09:11.570Z,115
2017-05-05T12:10:11.579Z,120
2017-05-05T12:11:11.675Z,120
2017-05-05T12:12:11.654Z,125
2017-05-05T12:13:11.759Z,125
2017-05-05T12:14:12.081Z,115
2017-05-05T12:15:11.842Z,110
2017-05-05T12:16:11.813Z,110
2017-05-05T12:17:12.558Z,110
2017-05-05T12:18:11.885Z,115
2017-05-05T12:19:11.927Z,120
2017-05-05T12:20:12.301Z,125
2017-05-05T12:21:12.039Z,125
2017-05-05T12:22:12.102Z,120
2017-05-05T12:23:12.384Z,120
2017-05-05T12:24:12.427Z,120
2017-05-05T12:25:12.536Z,125
2017-05-05T12:26:12.638Z,130
2017-05-05T12:27:12.230Z,130
2017-05-05T12:28:12.334Z,130
2017-05-05T12:29:12.624Z,125
2017-05-05T12:30:12.383Z,125
2017-05-05T12:31:12.440Z,125
2017-05-05T12:32:12.424Z,125
2017-05-05T12:33:12.510Z,125
2017-05-05T12:34:12.818Z,120
2017-05-05T12:35:12.604Z,120
2017-05-05T12:36:12.938Z,120
2017-05-05T12:37:12.661Z,125
2017-05-05T12:38:12.660Z,135
2017-05-05T12:39:12.732Z,155
2017-05-05T12:40:13.106Z,170
2017-05-05T12:41:13.665Z,190
2017-05-05T12:42:12.811Z,205
2017-05-05T12:43:12.847Z,205
2017-05-05T12:44:13.271Z,205
2017-05-05T12:45:12.929Z,205
2017-05-05T12:46:13.019Z,210
2017-05-05T12:47:13.005Z,220
2017-05-05T12:48:13.044Z,225
2017-05-05T12:49:13.076Z,220
2017-05-05T12:50:13.121Z,205
2017-05-05T12:51:13.158Z,190
2017-05-05T12:52:13.211Z,180
2017-05-05T12:53:13.622Z,170
2017-05-05T12:54:13.582Z,160
2017-05-05T12:55:13.369Z,155
2017-05-05T12:56:13.354Z,155
2017-05-05T12:57:13.696Z,150
2017-05-05T12:58:13.451Z,145
2017-05-05T12:59:13.538Z,145
2017-05-05T13:00:13.818Z,145
2017-05-05T13:01:13.571Z,145
2017-05-05T13:02:13.584Z,150
2017-05-05T13:03:13.658Z,155
2017-05-05T13:04:13.969Z,155
2017-05-05T13:05:13.699Z,155
2017-05-05T13:06:13.784Z,145
2017-05-05T13:07:14.103Z,140
2017-05-05T13:08:14.121Z,135
2017-05-05T13:09:14.162Z,130
2017-05-05T13:10:14.268Z,130
2017-05-05T13:11:14.296Z,135
2017-05-05T13:12:13.982Z,140
2017-05-05T13:13:14.381Z,140
2017-05-05T13:14:14.358Z,135
2017-05-05T13:15:14.093Z,135
2017-05-05T13:16:14.187Z,135
2017-05-05T13:17:14.476Z,135
2017-05-05T13:18:14.206Z,135
2017-05-05T13:19:14.250Z,135
2017-05-05T13:20:14.490Z,135
2017-05-05T13:21:14.390Z,140
2017-05-05T13:22:14.420Z,145
2017-05-05T13:23:14.738Z,150
2017-05-05T13:24:14.459Z,150
2017-05-05T13:25:14.832Z,145
2017-05-05T13:26:14.559Z,140
2017-05-05T13:27:14.556Z,140
2017-05-05T13:28:14.595Z,145
2017-05-05T13:29:14.697Z,150
2017-05-05T13:30:14.682Z,150
2017-05-05T13:31:15.327Z,150
2017-05-05T13:32:15.415Z,150
2017-05-05T13:33:14.786Z,150
2017-05-05T13:34:15.204Z,145
2017-05-05T13:35:14.921Z,150
2017-05-05T13:36:14.906Z,150
2017-05-05T13:37:14.970Z,155
2017-05-05T13:38:14.999Z,155
2017-05-05T13:39:15.328Z,160
2017-05-05T13:40:15.372Z,160
2017-05-05T13:41:15.127Z,160
2017-05-05T13:42:15.142Z,160
2017-05-05T13:43:15.487Z,165
2017-05-05T13:44:15.566Z,165
2017-05-05T13:45:15.618Z,165
2017-05-05T13:46:15.992Z,160
2017-05-05T13:47:15.638Z,160
2017-05-05T13:48:15.463Z,155
2017-05-05T13:49:16.098Z,155
2017-05-05T13:50:16.067Z,160
2017-05-05T13:51:15.513Z,160
2017-05-05T13:52:15.581Z,165
2017-05-05T13:53:15.905Z,170
2017-05-05T13:54:15.651Z,175
2017-05-05T13:55:15.992Z,175
2017-05-05T13:56:15.678Z,175
2017-05-05T13:57:15.760Z,175
2017-05-05T13:58:15.754Z,175
2017-05-05T13:59:15.802Z,175
2017-05-05T14:00:15.904Z,165
2017-05-05T14:01:16.178Z,160
2017-05-05T14:02:16.228Z,150
2017-05-05T14:03:16.002Z,145
2017-05-05T14:04:16.029Z,140
2017-05-05T14:05:16.025Z,140
2017-05-05T14:06:16.411Z,135
2017-05-05T14:07:16.106Z,130
2017-05-05T14:08:16.451Z,120
2017-05-05T14:09:16.185Z,115